sensor_id;sensor_type;location;lat;lon;timestamp;temperature;humidity
18690;DHT22;9782;52.930;15.562;2023-04-03T00:01:34;0.30;1.00
18690;DHT22;9782;52.930;15.562;2023-04-03T00:04:03;0.20;1.00
18690;DHT22;9782;52.930;15.562;2023-04-03T00:06:30;0.20;1.00
18690;DHT22;9782;52.930;15.562;2023-04-03T00:08:58;0.10;1.00
18690;DHT22;9782;52.930;15.562;2023-04-03T00:11:25;0.10;1.00
18690;DHT22;9782;52.930;15.562;2023-04-03T00:13:52;0.10;1.00
18690;DHT22;9782;52.930;15.562;2023-04-03T00:16:19;0.00;1.00
18690;DHT22;9782;52.930;15.562;2023-04-03T00:18:46;0.10;1.00
18690;DHT22;9782;52.930;15.562;2023-04-03T00:21:13;0.00;1.00
18690;DHT22;9782;52.930;15.562;2023-04-03T00:23:41;0.00;1.00
18690;DHT22;9782;52.930;15.562;2023-04-03T00:26:09;0.00;1.00
18690;DHT22;9782;52.930;15.562;2023-04-03T00:28:36;0.00;1.00
18690;DHT22;9782;52.930;15.562;2023-04-03T00:31:03;0.00;1.00
18690;DHT22;9782;52.930;15.562;2023-04-03T00:33:30;0.00;1.00
18690;DHT22;9782;52.930;15.562;2023-04-03T00:35:57;0.00;1.00
18690;DHT22;9782;52.930;15.562;2023-04-03T00:38:23;0.00;1.00
18690;DHT22;9782;52.930;15.562;2023-04-03T00:40:50;0.00;1.00
18690;DHT22;9782;52.930;15.562;2023-04-03T00:43:21;0.00;1.00
18690;DHT22;9782;52.930;15.562;2023-04-03T00:45:48;0.00;1.00
18690;DHT22;9782;52.930;15.562;2023-04-03T00:48:18;-0.10;1.00
18690;DHT22;9782;52.930;15.562;2023-04-03T00:50:46;-0.10;1.00
18690;DHT22;9782;52.930;15.562;2023-04-03T00:53:17;-0.10;1.00
18690;DHT22;9782;52.930;15.562;2023-04-03T00:55:46;-0.10;6.90
18690;DHT22;9782;52.930;15.562;2023-04-03T00:58:14;-0.10;1.40
18690;DHT22;9782;52.930;15.562;2023-04-03T01:00:48;-0.10;1.00
18690;DHT22;9782;52.930;15.562;2023-04-03T01:03:17;-0.10;34.30
18690;DHT22;9782;52.930;15.562;2023-04-03T01:05:43;-0.10;17.80
18690;DHT22;9782;52.930;15.562;2023-04-03T01:08:10;-0.20;58.40
18690;DHT22;9782;52.930;15.562;2023-04-03T01:10:37;-0.20;99.90
18690;DHT22;9782;52.930;15.562;2023-04-03T01:13:18;-0.20;93.60
18690;DHT22;9782;52.930;15.562;2023-04-03T01:15:47;-0.20;99.90
18690;DHT22;9782;52.930;15.562;2023-04-03T01:18:14;-0.20;99.90
18690;DHT22;9782;52.930;15.562;2023-04-03T01:23:54;-0.30;99.90
18690;DHT22;9782;52.930;15.562;2023-04-03T01:26:24;-0.30;99.90
18690;DHT22;9782;52.930;15.562;2023-04-03T01:28:53;-0.30;99.90
18690;DHT22;9782;52.930;15.562;2023-04-03T01:31:24;-0.30;99.90
18690;DHT22;9782;52.930;15.562;2023-04-03T01:33:52;-0.30;99.90
18690;DHT22;9782;52.930;15.562;2023-04-03T01:36:21;-0.30;99.90
18690;DHT22;9782;52.930;15.562;2023-04-03T01:38:48;-0.20;99.90
18690;DHT22;9782;52.930;15.562;2023-04-03T01:41:16;-0.20;99.90
18690;DHT22;9782;52.930;15.562;2023-04-03T01:43:43;-0.20;99.90
18690;DHT22;9782;52.930;15.562;2023-04-03T01:46:09;-0.30;99.90
18690;DHT22;9782;52.930;15.562;2023-04-03T01:48:36;-0.30;99.90
18690;DHT22;9782;52.930;15.562;2023-04-03T01:51:05;-0.20;99.90
18690;DHT22;9782;52.930;15.562;2023-04-03T01:53:31;-0.30;99.90
18690;DHT22;9782;52.930;15.562;2023-04-03T01:55:58;-0.30;99.90
18690;DHT22;9782;52.930;15.562;2023-04-03T01:58:25;-0.40;99.90
18690;DHT22;9782;52.930;15.562;2023-04-03T02:00:52;-0.30;99.90
18690;DHT22;9782;52.930;15.562;2023-04-03T02:03:19;-0.30;99.90
18690;DHT22;9782;52.930;15.562;2023-04-03T02:05:46;-0.40;99.90
18690;DHT22;9782;52.930;15.562;2023-04-03T02:08:14;-0.40;99.90
18690;DHT22;9782;52.930;15.562;2023-04-03T02:10:43;-0.40;99.90
18690;DHT22;9782;52.930;15.562;2023-04-03T02:13:10;-0.40;99.90
18690;DHT22;9782;52.930;15.562;2023-04-03T02:15:38;-0.40;99.90
18690;DHT22;9782;52.930;15.562;2023-04-03T02:18:05;-0.40;99.90
18690;DHT22;9782;52.930;15.562;2023-04-03T02:20:31;-0.40;99.90
18690;DHT22;9782;52.930;15.562;2023-04-03T02:22:58;-0.40;99.90
18690;DHT22;9782;52.930;15.562;2023-04-03T02:25:27;-0.40;99.90
18690;DHT22;9782;52.930;15.562;2023-04-03T02:27:53;-0.50;99.90
18690;DHT22;9782;52.930;15.562;2023-04-03T02:30:20;-0.40;99.90
18690;DHT22;9782;52.930;15.562;2023-04-03T02:32:47;-0.40;99.90
18690;DHT22;9782;52.930;15.562;2023-04-03T02:35:14;-0.40;99.90
18690;DHT22;9782;52.930;15.562;2023-04-03T02:37:41;-0.40;99.90
18690;DHT22;9782;52.930;15.562;2023-04-03T02:40:08;-0.40;99.90
18690;DHT22;9782;52.930;15.562;2023-04-03T02:42:38;-0.40;99.90
18690;DHT22;9782;52.930;15.562;2023-04-03T02:45:06;-0.50;99.90
18690;DHT22;9782;52.930;15.562;2023-04-03T02:47:32;-0.50;99.90
18690;DHT22;9782;52.930;15.562;2023-04-03T02:49:59;-0.50;99.90
18690;DHT22;9782;52.930;15.562;2023-04-03T02:52:26;-0.50;99.90
18690;DHT22;9782;52.930;15.562;2023-04-03T02:54:53;-0.50;99.90
18690;DHT22;9782;52.930;15.562;2023-04-03T02:57:20;-0.50;1.00
18690;DHT22;9782;52.930;15.562;2023-04-03T02:59:48;-0.50;99.90
18690;DHT22;9782;52.930;15.562;2023-04-03T03:02:15;-0.60;1.00
18690;DHT22;9782;52.930;15.562;2023-04-03T03:04:41;-0.60;1.00
18690;DHT22;9782;52.930;15.562;2023-04-03T03:07:09;-0.60;1.00
18690;DHT22;9782;52.930;15.562;2023-04-03T03:09:36;-0.60;1.00
18690;DHT22;9782;52.930;15.562;2023-04-03T03:12:03;-0.60;1.00
18690;DHT22;9782;52.930;15.562;2023-04-03T03:14:30;-0.60;1.00
18690;DHT22;9782;52.930;15.562;2023-04-03T03:16:58;-0.60;1.00
18690;DHT22;9782;52.930;15.562;2023-04-03T03:19:25;-0.60;1.00
18690;DHT22;9782;52.930;15.562;2023-04-03T03:21:51;-0.60;1.00
18690;DHT22;9782;52.930;15.562;2023-04-03T03:24:18;-0.70;1.00
18690;DHT22;9782;52.930;15.562;2023-04-03T03:26:45;-0.60;1.00
18690;DHT22;9782;52.930;15.562;2023-04-03T03:29:12;-0.60;1.00
18690;DHT22;9782;52.930;15.562;2023-04-03T03:31:38;-0.70;1.00
18690;DHT22;9782;52.930;15.562;2023-04-03T03:34:07;-0.70;1.00
18690;DHT22;9782;52.930;15.562;2023-04-03T03:36:33;-0.70;1.00
18690;DHT22;9782;52.930;15.562;2023-04-03T03:39:00;-0.70;1.00
18690;DHT22;9782;52.930;15.562;2023-04-03T03:41:27;-0.70;1.00
18690;DHT22;9782;52.930;15.562;2023-04-03T03:43:54;-0.70;1.00
18690;DHT22;9782;52.930;15.562;2023-04-03T03:46:21;-0.70;99.90
18690;DHT22;9782;52.930;15.562;2023-04-03T03:48:48;-0.70;99.90
18690;DHT22;9782;52.930;15.562;2023-04-03T03:51:16;-0.80;99.90
18690;DHT22;9782;52.930;15.562;2023-04-03T03:53:43;-0.80;99.90
18690;DHT22;9782;52.930;15.562;2023-04-03T03:56:09;-0.80;99.90
18690;DHT22;9782;52.930;15.562;2023-04-03T03:58:36;-0.80;99.90
18690;DHT22;9782;52.930;15.562;2023-04-03T04:01:04;-0.80;99.90
18690;DHT22;9782;52.930;15.562;2023-04-03T04:03:32;-0.80;99.90
18690;DHT22;9782;52.930;15.562;2023-04-03T04:05:59;-0.80;99.90
18690;DHT22;9782;52.930;15.562;2023-04-03T04:08:27;-0.80;99.90
18690;DHT22;9782;52.930;15.562;2023-04-03T04:10:54;-0.80;99.90
18690;DHT22;9782;52.930;15.562;2023-04-03T04:13:21;-0.80;99.90
18690;DHT22;9782;52.930;15.562;2023-04-03T04:15:48;-0.90;99.90
18690;DHT22;9782;52.930;15.562;2023-04-03T04:18:14;-0.90;99.90
18690;DHT22;9782;52.930;15.562;2023-04-03T04:20:41;-0.90;99.90
18690;DHT22;9782;52.930;15.562;2023-04-03T04:23:08;-0.90;99.90
18690;DHT22;9782;52.930;15.562;2023-04-03T04:25:36;-0.90;99.90
18690;DHT22;9782;52.930;15.562;2023-04-03T04:28:03;-0.90;99.90
18690;DHT22;9782;52.930;15.562;2023-04-03T04:30:30;-0.90;99.90
18690;DHT22;9782;52.930;15.562;2023-04-03T04:32:57;-0.90;99.90
18690;DHT22;9782;52.930;15.562;2023-04-03T04:35:24;-0.90;99.90
18690;DHT22;9782;52.930;15.562;2023-04-03T04:37:50;-0.90;99.90
18690;DHT22;9782;52.930;15.562;2023-04-03T04:40:17;-0.90;99.90
18690;DHT22;9782;52.930;15.562;2023-04-03T04:42:45;-0.80;99.90
18690;DHT22;9782;52.930;15.562;2023-04-03T04:45:12;-0.80;99.90
18690;DHT22;9782;52.930;15.562;2023-04-03T04:47:40;-0.80;99.90
18690;DHT22;9782;52.930;15.562;2023-04-03T04:50:08;-0.80;99.90
18690;DHT22;9782;52.930;15.562;2023-04-03T04:52:35;-0.80;99.90
18690;DHT22;9782;52.930;15.562;2023-04-03T04:55:02;-0.80;99.90
18690;DHT22;9782;52.930;15.562;2023-04-03T04:57:29;-0.80;99.90
18690;DHT22;9782;52.930;15.562;2023-04-03T04:59:57;-0.80;99.90
18690;DHT22;9782;52.930;15.562;2023-04-03T05:02:24;-0.70;99.90
18690;DHT22;9782;52.930;15.562;2023-04-03T05:04:51;-0.70;99.90
18690;DHT22;9782;52.930;15.562;2023-04-03T05:07:18;-0.70;99.90
18690;DHT22;9782;52.930;15.562;2023-04-03T05:09:44;-0.70;99.90
18690;DHT22;9782;52.930;15.562;2023-04-03T10:31:23;7.60;99.90
18690;DHT22;9782;52.930;15.562;2023-04-03T10:33:59;7.40;99.90
18690;DHT22;9782;52.930;15.562;2023-04-03T10:36:36;7.20;99.90
18690;DHT22;9782;52.930;15.562;2023-04-03T10:39:12;6.90;99.90
18690;DHT22;9782;52.930;15.562;2023-04-03T10:41:59;6.60;99.90
18690;DHT22;9782;52.930;15.562;2023-04-03T10:44:35;6.60;99.90
18690;DHT22;9782;52.930;15.562;2023-04-03T10:47:11;6.90;99.90
18690;DHT22;9782;52.930;15.562;2023-04-03T10:49:54;7.00;99.90
18690;DHT22;9782;52.930;15.562;2023-04-03T10:52:29;6.90;99.90
18690;DHT22;9782;52.930;15.562;2023-04-03T10:55:05;6.60;99.90
18690;DHT22;9782;52.930;15.562;2023-04-03T10:57:34;6.30;99.90
18690;DHT22;9782;52.930;15.562;2023-04-03T11:00:03;6.40;99.90
18690;DHT22;9782;52.930;15.562;2023-04-03T11:02:37;6.50;99.90
18690;DHT22;9782;52.930;15.562;2023-04-03T11:05:08;6.70;99.90
18690;DHT22;9782;52.930;15.562;2023-04-03T11:07:45;6.90;99.90
18690;DHT22;9782;52.930;15.562;2023-04-03T11:10:19;7.20;99.90
18690;DHT22;9782;52.930;15.562;2023-04-03T11:12:53;7.60;99.90
18690;DHT22;9782;52.930;15.562;2023-04-03T11:15:22;8.00;99.90
18690;DHT22;9782;52.930;15.562;2023-04-03T11:17:54;8.30;99.90
18690;DHT22;9782;52.930;15.562;2023-04-03T11:20:25;8.60;99.90
18690;DHT22;9782;52.930;15.562;2023-04-03T11:22:58;9.10;99.90
18690;DHT22;9782;52.930;15.562;2023-04-03T11:25:29;9.40;99.90
18690;DHT22;9782;52.930;15.562;2023-04-03T11:27:59;9.60;99.90
18690;DHT22;9782;52.930;15.562;2023-04-03T11:30:31;9.90;99.90
18690;DHT22;9782;52.930;15.562;2023-04-03T11:33:13;9.90;99.90
18690;DHT22;9782;52.930;15.562;2023-04-03T11:35:44;9.90;99.90
18690;DHT22;9782;52.930;15.562;2023-04-03T11:38:18;9.50;99.90
18690;DHT22;9782;52.930;15.562;2023-04-03T11:40:49;9.00;99.90
18690;DHT22;9782;52.930;15.562;2023-04-03T11:43:25;8.50;99.90
18690;DHT22;9782;52.930;15.562;2023-04-03T11:45:57;8.40;99.90
18690;DHT22;9782;52.930;15.562;2023-04-03T11:48:49;8.80;99.90
18690;DHT22;9782;52.930;15.562;2023-04-03T11:51:50;9.30;99.90
18690;DHT22;9782;52.930;15.562;2023-04-03T11:54:44;9.50;99.90
18690;DHT22;9782;52.930;15.562;2023-04-03T11:57:43;9.30;99.90
18690;DHT22;9782;52.930;15.562;2023-04-03T12:00:47;9.00;99.90
18690;DHT22;9782;52.930;15.562;2023-04-03T12:03:33;8.50;99.90
18690;DHT22;9782;52.930;15.562;2023-04-03T12:09:23;7.90;99.90
18690;DHT22;9782;52.930;15.562;2023-04-03T12:11:51;7.70;99.90
18690;DHT22;9782;52.930;15.562;2023-04-03T12:14:22;8.00;99.90
18690;DHT22;9782;52.930;15.562;2023-04-03T12:16:52;8.40;99.90
18690;DHT22;9782;52.930;15.562;2023-04-03T12:19:34;8.60;99.90
18690;DHT22;9782;52.930;15.562;2023-04-03T12:24:44;8.70;99.90
18690;DHT22;9782;52.930;15.562;2023-04-03T12:27:33;8.90;99.90
18690;DHT22;9782;52.930;15.562;2023-04-03T12:30:14;9.30;99.90
18690;DHT22;9782;52.930;15.562;2023-04-03T12:32:57;9.40;99.90
18690;DHT22;9782;52.930;15.562;2023-04-03T12:35:31;9.40;99.90
18690;DHT22;9782;52.930;15.562;2023-04-03T12:41:27;9.30;99.90
18690;DHT22;9782;52.930;15.562;2023-04-03T12:44:11;9.40;99.90
18690;DHT22;9782;52.930;15.562;2023-04-03T12:46:44;9.50;99.90
18690;DHT22;9782;52.930;15.562;2023-04-03T12:49:26;9.50;99.90
18690;DHT22;9782;52.930;15.562;2023-04-03T12:51:57;9.40;99.90
18690;DHT22;9782;52.930;15.562;2023-04-03T12:54:29;9.20;99.90
18690;DHT22;9782;52.930;15.562;2023-04-03T12:57:11;8.90;99.90
18690;DHT22;9782;52.930;15.562;2023-04-03T12:59:38;8.80;99.90
18690;DHT22;9782;52.930;15.562;2023-04-03T13:02:19;8.90;99.90
18690;DHT22;9782;52.930;15.562;2023-04-03T13:04:47;9.10;99.90
18690;DHT22;9782;52.930;15.562;2023-04-03T13:07:21;9.50;99.90
18690;DHT22;9782;52.930;15.562;2023-04-03T13:09:56;9.90;99.90
18690;DHT22;9782;52.930;15.562;2023-04-03T13:12:26;9.90;99.90
18690;DHT22;9782;52.930;15.562;2023-04-03T13:14:55;9.70;99.90
18690;DHT22;9782;52.930;15.562;2023-04-03T13:17:24;9.50;99.90
18690;DHT22;9782;52.930;15.562;2023-04-03T13:19:51;9.50;99.90
18690;DHT22;9782;52.930;15.562;2023-04-03T13:22:31;9.40;99.90
18690;DHT22;9782;52.930;15.562;2023-04-03T13:25:07;9.40;99.90
18690;DHT22;9782;52.930;15.562;2023-04-03T13:27:38;9.40;99.90
18690;DHT22;9782;52.930;15.562;2023-04-03T13:30:29;9.30;99.90
18690;DHT22;9782;52.930;15.562;2023-04-03T13:32:58;9.30;99.90
18690;DHT22;9782;52.930;15.562;2023-04-03T13:35:31;9.30;99.90
18690;DHT22;9782;52.930;15.562;2023-04-03T13:38:00;9.10;99.90
18690;DHT22;9782;52.930;15.562;2023-04-03T13:40:28;9.00;99.90
18690;DHT22;9782;52.930;15.562;2023-04-03T13:43:16;8.80;99.90
18690;DHT22;9782;52.930;15.562;2023-04-03T13:45:55;8.80;99.90
18690;DHT22;9782;52.930;15.562;2023-04-03T13:48:23;8.80;99.90
18690;DHT22;9782;52.930;15.562;2023-04-03T13:50:58;8.80;99.90
18690;DHT22;9782;52.930;15.562;2023-04-03T13:53:26;8.80;99.90
18690;DHT22;9782;52.930;15.562;2023-04-03T13:56:09;8.80;99.90
18690;DHT22;9782;52.930;15.562;2023-04-03T13:58:57;8.80;99.90
18690;DHT22;9782;52.930;15.562;2023-04-03T14:01:32;8.70;99.90
18690;DHT22;9782;52.930;15.562;2023-04-03T14:04:00;8.60;99.90
18690;DHT22;9782;52.930;15.562;2023-04-03T14:06:28;8.60;99.90
18690;DHT22;9782;52.930;15.562;2023-04-03T14:08:55;8.60;99.90
18690;DHT22;9782;52.930;15.562;2023-04-03T14:11:24;8.50;99.90
18690;DHT22;9782;52.930;15.562;2023-04-03T14:14:09;8.60;99.90
18690;DHT22;9782;52.930;15.562;2023-04-03T14:16:39;8.50;99.90
18690;DHT22;9782;52.930;15.562;2023-04-03T14:19:09;8.50;99.90
18690;DHT22;9782;52.930;15.562;2023-04-03T14:21:41;8.40;99.90
18690;DHT22;9782;52.930;15.562;2023-04-03T14:24:08;8.20;99.90
18690;DHT22;9782;52.930;15.562;2023-04-03T14:26:37;8.10;99.90
18690;DHT22;9782;52.930;15.562;2023-04-03T14:29:05;8.00;99.90
18690;DHT22;9782;52.930;15.562;2023-04-03T14:31:32;8.00;99.90
18690;DHT22;9782;52.930;15.562;2023-04-03T14:33:59;7.90;99.90
18690;DHT22;9782;52.930;15.562;2023-04-03T14:36:30;7.90;99.90
18690;DHT22;9782;52.930;15.562;2023-04-03T14:38:57;7.90;99.90
18690;DHT22;9782;52.930;15.562;2023-04-03T14:41:25;7.90;99.90
18690;DHT22;9782;52.930;15.562;2023-04-03T14:43:53;7.90;99.90
18690;DHT22;9782;52.930;15.562;2023-04-03T14:46:26;7.90;99.90
18690;DHT22;9782;52.930;15.562;2023-04-03T14:48:53;7.90;99.90
18690;DHT22;9782;52.930;15.562;2023-04-03T14:51:21;7.90;99.90
18690;DHT22;9782;52.930;15.562;2023-04-03T14:53:48;7.80;99.90
18690;DHT22;9782;52.930;15.562;2023-04-03T14:56:18;7.70;99.90
18690;DHT22;9782;52.930;15.562;2023-04-03T14:58:47;7.50;99.90
18690;DHT22;9782;52.930;15.562;2023-04-03T15:01:17;7.40;99.90
18690;DHT22;9782;52.930;15.562;2023-04-03T15:03:45;7.40;99.90
18690;DHT22;9782;52.930;15.562;2023-04-03T15:06:13;7.60;99.90
18690;DHT22;9782;52.930;15.562;2023-04-03T15:08:41;7.70;99.90
18690;DHT22;9782;52.930;15.562;2023-04-03T15:11:09;7.60;99.90
18690;DHT22;9782;52.930;15.562;2023-04-03T15:13:36;7.50;99.90
18690;DHT22;9782;52.930;15.562;2023-04-03T15:16:04;7.50;99.90
18690;DHT22;9782;52.930;15.562;2023-04-03T15:18:37;7.50;99.90
18690;DHT22;9782;52.930;15.562;2023-04-03T15:21:05;7.40;99.90
18690;DHT22;9782;52.930;15.562;2023-04-03T15:23:32;7.40;99.90
18690;DHT22;9782;52.930;15.562;2023-04-03T15:25:59;7.40;99.90
18690;DHT22;9782;52.930;15.562;2023-04-03T15:28:29;7.20;99.90
18690;DHT22;9782;52.930;15.562;2023-04-03T15:30:57;7.20;99.90
18690;DHT22;9782;52.930;15.562;2023-04-03T15:33:24;7.10;99.90
18690;DHT22;9782;52.930;15.562;2023-04-03T15:35:51;7.20;99.90
18690;DHT22;9782;52.930;15.562;2023-04-03T15:38:20;7.30;99.90
18690;DHT22;9782;52.930;15.562;2023-04-03T15:40:47;7.40;99.90
18690;DHT22;9782;52.930;15.562;2023-04-03T15:43:15;7.40;99.90
18690;DHT22;9782;52.930;15.562;2023-04-03T15:45:43;7.40;99.90
18690;DHT22;9782;52.930;15.562;2023-04-03T15:48:11;7.40;99.90
18690;DHT22;9782;52.930;15.562;2023-04-03T15:50:38;7.40;99.90
18690;DHT22;9782;52.930;15.562;2023-04-03T15:53:06;7.40;99.90
18690;DHT22;9782;52.930;15.562;2023-04-03T15:55:37;7.30;99.90
18690;DHT22;9782;52.930;15.562;2023-04-03T15:58:05;7.20;99.90
18690;DHT22;9782;52.930;15.562;2023-04-03T16:00:32;7.10;99.90
18690;DHT22;9782;52.930;15.562;2023-04-03T16:03:02;7.00;99.90
18690;DHT22;9782;52.930;15.562;2023-04-03T16:05:31;7.00;99.90
18690;DHT22;9782;52.930;15.562;2023-04-03T16:07:59;6.90;99.90
18690;DHT22;9782;52.930;15.562;2023-04-03T16:10:27;6.90;99.90
18690;DHT22;9782;52.930;15.562;2023-04-03T16:12:55;6.90;99.90
18690;DHT22;9782;52.930;15.562;2023-04-03T16:15:23;6.80;99.90
18690;DHT22;9782;52.930;15.562;2023-04-03T16:17:50;6.90;99.90
18690;DHT22;9782;52.930;15.562;2023-04-03T16:20:18;6.80;99.90
18690;DHT22;9782;52.930;15.562;2023-04-03T16:22:47;6.70;99.90
18690;DHT22;9782;52.930;15.562;2023-04-03T16:25:14;6.70;99.90
18690;DHT22;9782;52.930;15.562;2023-04-03T16:27:41;6.60;99.90
18690;DHT22;9782;52.930;15.562;2023-04-03T16:30:11;6.60;99.90
18690;DHT22;9782;52.930;15.562;2023-04-03T16:32:39;6.60;99.90
18690;DHT22;9782;52.930;15.562;2023-04-03T16:35:07;6.50;99.90
18690;DHT22;9782;52.930;15.562;2023-04-03T16:37:36;6.50;99.90
18690;DHT22;9782;52.930;15.562;2023-04-03T16:40:03;6.50;99.90
18690;DHT22;9782;52.930;15.562;2023-04-03T16:42:31;6.40;99.90
18690;DHT22;9782;52.930;15.562;2023-04-03T16:44:58;6.40;99.90
18690;DHT22;9782;52.930;15.562;2023-04-03T16:47:29;6.30;99.90
18690;DHT22;9782;52.930;15.562;2023-04-03T16:49:56;6.20;99.90
18690;DHT22;9782;52.930;15.562;2023-04-03T16:52:23;6.10;99.90
18690;DHT22;9782;52.930;15.562;2023-04-03T16:54:50;6.00;99.90
18690;DHT22;9782;52.930;15.562;2023-04-03T16:57:21;5.90;99.90
18690;DHT22;9782;52.930;15.562;2023-04-03T16:59:50;5.80;99.90
18690;DHT22;9782;52.930;15.562;2023-04-03T17:02:17;5.80;99.90
18690;DHT22;9782;52.930;15.562;2023-04-03T17:04:45;5.70;99.90
18690;DHT22;9782;52.930;15.562;2023-04-03T17:07:12;5.70;99.90
18690;DHT22;9782;52.930;15.562;2023-04-03T17:09:39;5.60;99.90
18690;DHT22;9782;52.930;15.562;2023-04-03T17:12:06;5.50;99.90
18690;DHT22;9782;52.930;15.562;2023-04-03T17:14:33;5.50;99.90
18690;DHT22;9782;52.930;15.562;2023-04-03T17:17:01;5.40;99.90
18690;DHT22;9782;52.930;15.562;2023-04-03T17:19:28;5.30;99.90
18690;DHT22;9782;52.930;15.562;2023-04-03T17:21:57;5.20;99.90
18690;DHT22;9782;52.930;15.562;2023-04-03T17:24:26;5.20;99.90
18690;DHT22;9782;52.930;15.562;2023-04-03T17:26:53;5.10;99.90
18690;DHT22;9782;52.930;15.562;2023-04-03T17:29:20;5.00;99.90
18690;DHT22;9782;52.930;15.562;2023-04-03T17:31:47;4.90;99.90
18690;DHT22;9782;52.930;15.562;2023-04-03T17:34:14;4.90;99.90
18690;DHT22;9782;52.930;15.562;2023-04-03T17:36:41;4.90;99.90
18690;DHT22;9782;52.930;15.562;2023-04-03T17:39:10;4.80;99.90
18690;DHT22;9782;52.930;15.562;2023-04-03T17:41:37;4.80;99.90
18690;DHT22;9782;52.930;15.562;2023-04-03T17:44:05;4.80;99.90
18690;DHT22;9782;52.930;15.562;2023-04-03T17:46:32;4.80;99.90
18690;DHT22;9782;52.930;15.562;2023-04-03T17:48:59;4.80;99.90
18690;DHT22;9782;52.930;15.562;2023-04-03T17:51:27;4.70;99.90
18690;DHT22;9782;52.930;15.562;2023-04-03T17:53:54;4.70;99.90
18690;DHT22;9782;52.930;15.562;2023-04-03T17:56:24;4.60;99.90
18690;DHT22;9782;52.930;15.562;2023-04-03T17:58:52;4.50;99.90
18690;DHT22;9782;52.930;15.562;2023-04-03T18:01:21;4.50;99.90
18690;DHT22;9782;52.930;15.562;2023-04-03T18:03:51;4.40;99.90
18690;DHT22;9782;52.930;15.562;2023-04-03T18:06:21;4.40;99.90
18690;DHT22;9782;52.930;15.562;2023-04-03T18:08:50;4.40;99.90
18690;DHT22;9782;52.930;15.562;2023-04-03T18:11:18;4.40;99.90
18690;DHT22;9782;52.930;15.562;2023-04-03T18:13:48;4.40;99.90
18690;DHT22;9782;52.930;15.562;2023-04-03T18:16:15;4.40;99.90
18690;DHT22;9782;52.930;15.562;2023-04-03T18:18:42;4.40;99.90
18690;DHT22;9782;52.930;15.562;2023-04-03T18:21:11;4.40;99.90
18690;DHT22;9782;52.930;15.562;2023-04-03T18:23:40;4.40;99.90
18690;DHT22;9782;52.930;15.562;2023-04-03T18:26:09;4.40;99.90
18690;DHT22;9782;52.930;15.562;2023-04-03T18:28:39;4.30;99.90
18690;DHT22;9782;52.930;15.562;2023-04-03T18:31:07;4.30;99.90
18690;DHT22;9782;52.930;15.562;2023-04-03T18:33:36;4.30;99.90
18690;DHT22;9782;52.930;15.562;2023-04-03T18:36:04;4.20;99.90
18690;DHT22;9782;52.930;15.562;2023-04-03T18:38:31;4.20;99.90
18690;DHT22;9782;52.930;15.562;2023-04-03T18:40:58;4.20;99.90
18690;DHT22;9782;52.930;15.562;2023-04-03T18:43:26;4.00;99.90
18690;DHT22;9782;52.930;15.562;2023-04-03T18:45:53;4.00;99.90
18690;DHT22;9782;52.930;15.562;2023-04-03T18:48:22;3.90;99.90
18690;DHT22;9782;52.930;15.562;2023-04-03T18:50:49;3.80;99.90
18690;DHT22;9782;52.930;15.562;2023-04-03T18:53:16;3.70;99.90
18690;DHT22;9782;52.930;15.562;2023-04-03T18:55:43;3.60;99.90
18690;DHT22;9782;52.930;15.562;2023-04-03T18:58:11;3.50;99.90
18690;DHT22;9782;52.930;15.562;2023-04-03T19:00:39;3.40;99.90
18690;DHT22;9782;52.930;15.562;2023-04-03T19:03:06;3.30;99.90
18690;DHT22;9782;52.930;15.562;2023-04-03T19:05:36;3.30;1.00
18690;DHT22;9782;52.930;15.562;2023-04-03T19:08:04;3.20;1.00
18690;DHT22;9782;52.930;15.562;2023-04-03T19:10:31;3.20;1.00
18690;DHT22;9782;52.930;15.562;2023-04-03T19:12:58;3.10;1.00
18690;DHT22;9782;52.930;15.562;2023-04-03T19:15:25;3.10;1.00
18690;DHT22;9782;52.930;15.562;2023-04-03T19:17:52;3.00;1.00
18690;DHT22;9782;52.930;15.562;2023-04-03T19:20:19;3.00;1.00
18690;DHT22;9782;52.930;15.562;2023-04-03T19:22:48;2.90;1.00
18690;DHT22;9782;52.930;15.562;2023-04-03T19:25:15;2.90;1.00
18690;DHT22;9782;52.930;15.562;2023-04-03T19:27:42;2.80;1.00
18690;DHT22;9782;52.930;15.562;2023-04-03T19:30:10;2.70;1.00
18690;DHT22;9782;52.930;15.562;2023-04-03T19:32:38;2.60;1.00
18690;DHT22;9782;52.930;15.562;2023-04-03T19:35:06;2.50;1.00
18690;DHT22;9782;52.930;15.562;2023-04-03T19:37:33;2.50;1.00
18690;DHT22;9782;52.930;15.562;2023-04-03T19:40:01;2.40;1.00
18690;DHT22;9782;52.930;15.562;2023-04-03T19:42:29;2.30;1.00
18690;DHT22;9782;52.930;15.562;2023-04-03T19:44:56;2.30;1.00
18690;DHT22;9782;52.930;15.562;2023-04-03T19:47:24;2.30;1.00
18690;DHT22;9782;52.930;15.562;2023-04-03T19:49:53;2.20;1.00
18690;DHT22;9782;52.930;15.562;2023-04-03T19:52:20;2.10;1.00
18690;DHT22;9782;52.930;15.562;2023-04-03T19:54:47;2.00;1.00
18690;DHT22;9782;52.930;15.562;2023-04-03T19:57:15;2.00;1.00
18690;DHT22;9782;52.930;15.562;2023-04-03T19:59:42;1.90;1.00
18690;DHT22;9782;52.930;15.562;2023-04-03T20:02:09;1.80;1.00
18690;DHT22;9782;52.930;15.562;2023-04-03T20:04:36;1.80;1.00
18690;DHT22;9782;52.930;15.562;2023-04-03T20:07:03;1.80;1.00
18690;DHT22;9782;52.930;15.562;2023-04-03T20:09:30;1.80;1.00
18690;DHT22;9782;52.930;15.562;2023-04-03T20:11:58;1.70;1.00
18690;DHT22;9782;52.930;15.562;2023-04-03T20:14:28;1.60;1.00
18690;DHT22;9782;52.930;15.562;2023-04-03T20:16:55;1.60;1.00
18690;DHT22;9782;52.930;15.562;2023-04-03T20:19:22;1.60;1.00
18690;DHT22;9782;52.930;15.562;2023-04-03T20:21:51;1.60;1.00
18690;DHT22;9782;52.930;15.562;2023-04-03T20:24:18;1.60;1.00
18690;DHT22;9782;52.930;15.562;2023-04-03T20:26:45;1.50;1.00
18690;DHT22;9782;52.930;15.562;2023-04-03T20:29:12;1.50;1.00
18690;DHT22;9782;52.930;15.562;2023-04-03T20:31:42;1.40;1.00
18690;DHT22;9782;52.930;15.562;2023-04-03T20:34:09;1.40;1.00
18690;DHT22;9782;52.930;15.562;2023-04-03T20:36:36;1.30;1.00
18690;DHT22;9782;52.930;15.562;2023-04-03T20:39:03;1.20;1.00
18690;DHT22;9782;52.930;15.562;2023-04-03T20:41:30;1.20;1.00
18690;DHT22;9782;52.930;15.562;2023-04-03T20:44:00;1.20;1.00
18690;DHT22;9782;52.930;15.562;2023-04-03T20:46:27;1.10;1.00
18690;DHT22;9782;52.930;15.562;2023-04-03T20:48:55;1.10;1.00
18690;DHT22;9782;52.930;15.562;2023-04-03T20:51:24;1.00;1.00
18690;DHT22;9782;52.930;15.562;2023-04-03T20:53:53;1.00;1.00
18690;DHT22;9782;52.930;15.562;2023-04-03T20:56:21;0.90;1.00
18690;DHT22;9782;52.930;15.562;2023-04-03T20:58:48;0.90;1.00
18690;DHT22;9782;52.930;15.562;2023-04-03T21:01:18;0.70;1.00
18690;DHT22;9782;52.930;15.562;2023-04-03T21:03:46;0.70;1.00
18690;DHT22;9782;52.930;15.562;2023-04-03T21:21:27;0.40;4.60
18690;DHT22;9782;52.930;15.562;2023-04-03T21:23:54;0.30;1.00
18690;DHT22;9782;52.930;15.562;2023-04-03T21:26:22;0.30;2.50
18690;DHT22;9782;52.930;15.562;2023-04-03T21:28:51;0.20;11.70
18690;DHT22;9782;52.930;15.562;2023-04-03T21:31:19;0.20;13.10
18690;DHT22;9782;52.930;15.562;2023-04-03T21:33:46;0.20;50.40
18690;DHT22;9782;52.930;15.562;2023-04-03T21:36:14;0.10;40.30
18690;DHT22;9782;52.930;15.562;2023-04-03T21:38:41;0.10;39.50
18690;DHT22;9782;52.930;15.562;2023-04-03T21:41:12;0.10;30.00
18690;DHT22;9782;52.930;15.562;2023-04-03T21:43:39;0.00;24.50
18690;DHT22;9782;52.930;15.562;2023-04-03T21:46:06;-0.10;61.00